Back to top

Lander, WY weather

Hunt Field Airport, Lander, WY: 6/04/2020 04:53
Visibility10 statute milesclear sky
View 7-Day Forecast
Area Summary
Sky/CloudsSky Clear
Weather [last 24 hours]None [rain began 12:53; rain ended 13:08 began 13:49; rain ended 14:15; rain began 15:22 ended 15:44 ]
Pressure29.93 in.Hg (1014 hPa)
Dew Point36 °F (2.2 °C)
Relative Humidity35.2 %
Last 24-Hour Precip.0.03 in. (0.762 mm)
Reading TimePrecipitation
6-hr ending 6/3@17:530.03 in. (0.762 mm)
Temperature64 °F (17.8 °C)red thermometer
Reading TimeMinimum to Maximum Temperature
6-hr ending 6/3@23:5359 °F to 75 °F (15 °C to 23.9 °C)
6-hr ending 6/3@17:5363 °F to 80.1 °F (17.2 °C to 26.7 °C)
6-hr ending 6/3@11:5357 °F to 78.1 °F (13.9 °C to 25.6 °C)
6-hr ending 6/3@05:5355.9 °F to 68 °F (13.3 °C to 20 °C)
24-hr ending 6/4@00:5355.9 °F to 80.1 °F (13.3 °C to 26.7 °C)
Wind11.5 MPH (10 KT) green arrow pointing 202.5 degrees
Wind FromSouth/Southwest (210 Degrees)
Rolling 24-hr Peak Wind43.7 MPH (38 KT) on 6/3@13:46
Rolling 24-hr Peak Wind FromNorth/Northwest (330 Degrees)
Twilight Begins05:01Sunshine Yesterday
Sunrise05:36N/A
Sunset20:52
Twilight Ends21:27
METARKLND 041053Z AUTO 21010KT 10SM CLR 18/02 A2993 RMK AO2 SLP069 T01780022
Tags: